sensor_id;sensor_type;location;lat;lon;timestamp;P1;durP1;ratioP1;P2;durP2;ratioP2
49029;SDS011;43337;52.070;4.508;2023-06-22T00:01:17;26.52;;;13.88;;
49029;SDS011;43337;52.070;4.508;2023-06-22T00:03:43;29.20;;;14.65;;
49029;SDS011;43337;52.070;4.508;2023-06-22T00:06:09;27.20;;;14.05;;
49029;SDS011;43337;52.070;4.508;2023-06-22T00:08:34;30.00;;;14.93;;
49029;SDS011;43337;52.070;4.508;2023-06-22T00:10:59;27.60;;;14.35;;
49029;SDS011;43337;52.070;4.508;2023-06-22T00:13:25;41.10;;;20.65;;
49029;SDS011;43337;52.070;4.508;2023-06-22T00:15:50;34.22;;;18.17;;
49029;SDS011;43337;52.070;4.508;2023-06-22T00:18:15;33.78;;;17.55;;
49029;SDS011;43337;52.070;4.508;2023-06-22T00:20:41;32.00;;;16.25;;
49029;SDS011;43337;52.070;4.508;2023-06-22T00:23:07;30.95;;;15.60;;
49029;SDS011;43337;52.070;4.508;2023-06-22T00:25:35;28.27;;;16.20;;
49029;SDS011;43337;52.070;4.508;2023-06-22T00:28:02;31.83;;;17.13;;
49029;SDS011;43337;52.070;4.508;2023-06-22T00:30:29;32.70;;;16.98;;
49029;SDS011;43337;52.070;4.508;2023-06-22T00:32:55;29.20;;;16.92;;
49029;SDS011;43337;52.070;4.508;2023-06-22T00:35:28;29.48;;;15.55;;
49029;SDS011;43337;52.070;4.508;2023-06-22T00:37:56;42.00;;;20.88;;
49029;SDS011;43337;52.070;4.508;2023-06-22T00:40:32;38.25;;;19.45;;
49029;SDS011;43337;52.070;4.508;2023-06-22T00:42:58;35.08;;;16.75;;
49029;SDS011;43337;52.070;4.508;2023-06-22T00:45:24;33.03;;;17.13;;
49029;SDS011;43337;52.070;4.508;2023-06-22T00:47:53;35.80;;;16.30;;
49029;SDS011;43337;52.070;4.508;2023-06-22T00:50:25;33.92;;;18.00;;
49029;SDS011;43337;52.070;4.508;2023-06-22T00:52:52;30.70;;;16.52;;
49029;SDS011;43337;52.070;4.508;2023-06-22T00:55:21;35.17;;;17.25;;
49029;SDS011;43337;52.070;4.508;2023-06-22T00:57:47;33.45;;;19.05;;
49029;SDS011;43337;52.070;4.508;2023-06-22T01:00:15;33.95;;;17.67;;
49029;SDS011;43337;52.070;4.508;2023-06-22T01:02:45;37.10;;;18.20;;
49029;SDS011;43337;52.070;4.508;2023-06-22T01:05:12;38.05;;;18.35;;
49029;SDS011;43337;52.070;4.508;2023-06-22T01:10:40;33.30;;;17.30;;
49029;SDS011;43337;52.070;4.508;2023-06-22T01:13:18;34.20;;;17.85;;
49029;SDS011;43337;52.070;4.508;2023-06-22T01:18:52;38.78;;;18.45;;
49029;SDS011;43337;52.070;4.508;2023-06-22T01:21:20;37.40;;;18.50;;
49029;SDS011;43337;52.070;4.508;2023-06-22T01:23:53;36.47;;;17.73;;
49029;SDS011;43337;52.070;4.508;2023-06-22T01:29:08;36.22;;;19.08;;
49029;SDS011;43337;52.070;4.508;2023-06-22T01:31:37;36.00;;;17.67;;
49029;SDS011;43337;52.070;4.508;2023-06-22T01:34:06;39.92;;;18.73;;
49029;SDS011;43337;52.070;4.508;2023-06-22T01:36:33;38.15;;;18.02;;
49029;SDS011;43337;52.070;4.508;2023-06-22T01:38:59;37.90;;;18.63;;
49029;SDS011;43337;52.070;4.508;2023-06-22T01:41:27;36.22;;;17.80;;
49029;SDS011;43337;52.070;4.508;2023-06-22T01:43:54;34.50;;;18.95;;
49029;SDS011;43337;52.070;4.508;2023-06-22T01:46:21;37.50;;;19.10;;
49029;SDS011;43337;52.070;4.508;2023-06-22T01:48:48;36.20;;;18.73;;
49029;SDS011;43337;52.070;4.508;2023-06-22T01:51:15;32.53;;;17.27;;
49029;SDS011;43337;52.070;4.508;2023-06-22T01:53:40;36.47;;;17.88;;
49029;SDS011;43337;52.070;4.508;2023-06-22T01:56:06;35.22;;;19.00;;
49029;SDS011;43337;52.070;4.508;2023-06-22T01:58:31;35.13;;;17.58;;
49029;SDS011;43337;52.070;4.508;2023-06-22T02:01:20;35.63;;;18.65;;
49029;SDS011;43337;52.070;4.508;2023-06-22T02:06:53;39.60;;;21.00;;
49029;SDS011;43337;52.070;4.508;2023-06-22T02:09:21;38.15;;;19.33;;
49029;SDS011;43337;52.070;4.508;2023-06-22T02:11:48;39.45;;;19.70;;
49029;SDS011;43337;52.070;4.508;2023-06-22T02:14:19;40.75;;;20.85;;
49029;SDS011;43337;52.070;4.508;2023-06-22T02:16:46;37.42;;;18.15;;
49029;SDS011;43337;52.070;4.508;2023-06-22T02:19:12;35.20;;;18.40;;
49029;SDS011;43337;52.070;4.508;2023-06-22T02:21:37;39.13;;;20.83;;
49029;SDS011;43337;52.070;4.508;2023-06-22T02:24:03;40.63;;;20.50;;
49029;SDS011;43337;52.070;4.508;2023-06-22T02:26:29;40.53;;;20.67;;
49029;SDS011;43337;52.070;4.508;2023-06-22T02:28:55;37.80;;;19.20;;
49029;SDS011;43337;52.070;4.508;2023-06-22T02:31:20;42.13;;;20.55;;
49029;SDS011;43337;52.070;4.508;2023-06-22T02:33:46;49.60;;;22.92;;
49029;SDS011;43337;52.070;4.508;2023-06-22T02:36:11;41.85;;;21.15;;
49029;SDS011;43337;52.070;4.508;2023-06-22T02:38:38;44.45;;;21.15;;
49029;SDS011;43337;52.070;4.508;2023-06-22T02:41:05;38.03;;;20.10;;
49029;SDS011;43337;52.070;4.508;2023-06-22T02:43:31;45.03;;;21.92;;
49029;SDS011;43337;52.070;4.508;2023-06-22T02:45:57;45.33;;;22.92;;
49029;SDS011;43337;52.070;4.508;2023-06-22T02:48:22;42.15;;;21.40;;
49029;SDS011;43337;52.070;4.508;2023-06-22T02:50:47;40.40;;;20.80;;
49029;SDS011;43337;52.070;4.508;2023-06-22T02:53:13;42.20;;;22.05;;
49029;SDS011;43337;52.070;4.508;2023-06-22T02:55:38;42.72;;;22.45;;
49029;SDS011;43337;52.070;4.508;2023-06-22T02:58:04;44.13;;;21.42;;
49029;SDS011;43337;52.070;4.508;2023-06-22T03:00:30;44.97;;;21.65;;
49029;SDS011;43337;52.070;4.508;2023-06-22T03:02:58;47.50;;;24.50;;
49029;SDS011;43337;52.070;4.508;2023-06-22T03:05:23;47.03;;;23.27;;
49029;SDS011;43337;52.070;4.508;2023-06-22T03:07:49;50.28;;;24.77;;
49029;SDS011;43337;52.070;4.508;2023-06-22T03:10:15;48.97;;;24.77;;
49029;SDS011;43337;52.070;4.508;2023-06-22T03:12:41;44.70;;;22.17;;
49029;SDS011;43337;52.070;4.508;2023-06-22T03:15:10;47.53;;;23.75;;
49029;SDS011;43337;52.070;4.508;2023-06-22T03:17:37;46.22;;;22.75;;
49029;SDS011;43337;52.070;4.508;2023-06-22T03:20:07;43.13;;;22.48;;
49029;SDS011;43337;52.070;4.508;2023-06-22T03:22:37;45.80;;;21.90;;
49029;SDS011;43337;52.070;4.508;2023-06-22T03:25:05;47.13;;;21.90;;
49029;SDS011;43337;52.070;4.508;2023-06-22T03:27:38;48.80;;;22.20;;
49029;SDS011;43337;52.070;4.508;2023-06-22T03:30:05;42.65;;;21.45;;
49029;SDS011;43337;52.070;4.508;2023-06-22T03:32:32;45.33;;;22.92;;
49029;SDS011;43337;52.070;4.508;2023-06-22T03:34:58;42.58;;;21.42;;
49029;SDS011;43337;52.070;4.508;2023-06-22T03:37:24;46.67;;;22.42;;
49029;SDS011;43337;52.070;4.508;2023-06-22T03:39:50;46.60;;;23.40;;
49029;SDS011;43337;52.070;4.508;2023-06-22T03:42:16;43.85;;;22.38;;
49029;SDS011;43337;52.070;4.508;2023-06-22T03:44:41;44.17;;;22.05;;
49029;SDS011;43337;52.070;4.508;2023-06-22T03:47:07;43.45;;;22.17;;
49029;SDS011;43337;52.070;4.508;2023-06-22T03:49:32;44.72;;;21.88;;
49029;SDS011;43337;52.070;4.508;2023-06-22T03:51:59;47.22;;;23.83;;
49029;SDS011;43337;52.070;4.508;2023-06-22T03:54:25;50.03;;;23.80;;
49029;SDS011;43337;52.070;4.508;2023-06-22T03:56:50;49.00;;;24.00;;
49029;SDS011;43337;52.070;4.508;2023-06-22T03:59:16;48.08;;;24.15;;
49029;SDS011;43337;52.070;4.508;2023-06-22T04:01:41;45.80;;;21.25;;
49029;SDS011;43337;52.070;4.508;2023-06-22T04:04:06;44.30;;;22.88;;
49029;SDS011;43337;52.070;4.508;2023-06-22T04:06:32;46.42;;;23.35;;
49029;SDS011;43337;52.070;4.508;2023-06-22T04:08:58;47.65;;;21.98;;
49029;SDS011;43337;52.070;4.508;2023-06-22T04:11:25;52.45;;;24.52;;
49029;SDS011;43337;52.070;4.508;2023-06-22T04:13:52;46.67;;;23.27;;
49029;SDS011;43337;52.070;4.508;2023-06-22T04:16:18;43.88;;;21.27;;
49029;SDS011;43337;52.070;4.508;2023-06-22T04:18:44;45.15;;;22.08;;
49029;SDS011;43337;52.070;4.508;2023-06-22T04:21:09;47.35;;;23.40;;
49029;SDS011;43337;52.070;4.508;2023-06-22T04:23:35;43.42;;;21.48;;
49029;SDS011;43337;52.070;4.508;2023-06-22T04:26:01;42.00;;;22.73;;
49029;SDS011;43337;52.070;4.508;2023-06-22T04:28:26;42.53;;;23.08;;
49029;SDS011;43337;52.070;4.508;2023-06-22T04:30:52;44.47;;;21.83;;
49029;SDS011;43337;52.070;4.508;2023-06-22T04:33:17;40.47;;;22.27;;
49029;SDS011;43337;52.070;4.508;2023-06-22T04:35:44;47.60;;;22.05;;
49029;SDS011;43337;52.070;4.508;2023-06-22T04:38:12;42.92;;;22.90;;
49029;SDS011;43337;52.070;4.508;2023-06-22T04:40:38;43.13;;;21.65;;
49029;SDS011;43337;52.070;4.508;2023-06-22T04:43:04;47.83;;;22.23;;
49029;SDS011;43337;52.070;4.508;2023-06-22T04:45:31;42.97;;;21.63;;
49029;SDS011;43337;52.070;4.508;2023-06-22T04:47:57;39.60;;;21.88;;
49029;SDS011;43337;52.070;4.508;2023-06-22T04:50:23;45.50;;;23.33;;
49029;SDS011;43337;52.070;4.508;2023-06-22T04:52:49;43.92;;;22.02;;
49029;SDS011;43337;52.070;4.508;2023-06-22T04:55:15;48.10;;;21.77;;
49029;SDS011;43337;52.070;4.508;2023-06-22T04:57:45;38.85;;;20.45;;
49029;SDS011;43337;52.070;4.508;2023-06-22T05:00:14;42.08;;;20.80;;
49029;SDS011;43337;52.070;4.508;2023-06-22T05:02:47;42.45;;;21.00;;
49029;SDS011;43337;52.070;4.508;2023-06-22T05:05:13;36.50;;;19.42;;
49029;SDS011;43337;52.070;4.508;2023-06-22T05:07:40;36.90;;;18.70;;
49029;SDS011;43337;52.070;4.508;2023-06-22T05:10:10;32.78;;;18.25;;
49029;SDS011;43337;52.070;4.508;2023-06-22T05:12:36;40.95;;;20.13;;
49029;SDS011;43337;52.070;4.508;2023-06-22T05:15:02;39.13;;;19.90;;
49029;SDS011;43337;52.070;4.508;2023-06-22T05:17:27;36.92;;;19.25;;
49029;SDS011;43337;52.070;4.508;2023-06-22T05:19:53;39.03;;;19.63;;
49029;SDS011;43337;52.070;4.508;2023-06-22T05:22:18;33.67;;;17.67;;
49029;SDS011;43337;52.070;4.508;2023-06-22T05:24:44;37.72;;;19.65;;
49029;SDS011;43337;52.070;4.508;2023-06-22T05:27:10;43.00;;;19.08;;
49029;SDS011;43337;52.070;4.508;2023-06-22T05:29:36;34.80;;;17.98;;
49029;SDS011;43337;52.070;4.508;2023-06-22T05:32:02;34.70;;;17.50;;
49029;SDS011;43337;52.070;4.508;2023-06-22T05:34:28;34.33;;;17.73;;
49029;SDS011;43337;52.070;4.508;2023-06-22T05:36:53;34.30;;;17.33;;
49029;SDS011;43337;52.070;4.508;2023-06-22T05:39:18;33.65;;;17.13;;
49029;SDS011;43337;52.070;4.508;2023-06-22T05:41:44;34.55;;;18.10;;
49029;SDS011;43337;52.070;4.508;2023-06-22T05:44:10;32.00;;;17.35;;
49029;SDS011;43337;52.070;4.508;2023-06-22T05:46:36;36.80;;;18.77;;
49029;SDS011;43337;52.070;4.508;2023-06-22T05:49:01;33.10;;;17.65;;
49029;SDS011;43337;52.070;4.508;2023-06-22T05:51:27;32.47;;;16.95;;
49029;SDS011;43337;52.070;4.508;2023-06-22T05:53:52;34.13;;;17.90;;
49029;SDS011;43337;52.070;4.508;2023-06-22T05:56:18;31.80;;;17.65;;
49029;SDS011;43337;52.070;4.508;2023-06-22T05:58:43;33.70;;;17.30;;
49029;SDS011;43337;52.070;4.508;2023-06-22T06:01:08;32.55;;;16.95;;
49029;SDS011;43337;52.070;4.508;2023-06-22T06:03:34;32.08;;;17.02;;
49029;SDS011;43337;52.070;4.508;2023-06-22T06:06:05;29.45;;;16.77;;
49029;SDS011;43337;52.070;4.508;2023-06-22T06:08:31;30.48;;;17.13;;
49029;SDS011;43337;52.070;4.508;2023-06-22T06:10:56;32.92;;;17.15;;
49029;SDS011;43337;52.070;4.508;2023-06-22T06:13:22;24.35;;;14.40;;
49029;SDS011;43337;52.070;4.508;2023-06-22T06:15:48;27.35;;;14.73;;
49029;SDS011;43337;52.070;4.508;2023-06-22T06:18:13;28.15;;;15.30;;
49029;SDS011;43337;52.070;4.508;2023-06-22T06:20:40;22.27;;;12.95;;
49029;SDS011;43337;52.070;4.508;2023-06-22T06:23:05;24.02;;;13.73;;
49029;SDS011;43337;52.070;4.508;2023-06-22T06:25:30;23.75;;;12.68;;
49029;SDS011;43337;52.070;4.508;2023-06-22T06:27:56;23.27;;;11.93;;
49029;SDS011;43337;52.070;4.508;2023-06-22T06:30:21;20.60;;;11.30;;
49029;SDS011;43337;52.070;4.508;2023-06-22T06:32:47;19.52;;;11.13;;
49029;SDS011;43337;52.070;4.508;2023-06-22T06:35:13;17.95;;;10.60;;
49029;SDS011;43337;52.070;4.508;2023-06-22T06:37:41;19.45;;;11.60;;
49029;SDS011;43337;52.070;4.508;2023-06-22T06:40:08;20.23;;;11.55;;
49029;SDS011;43337;52.070;4.508;2023-06-22T06:42:39;18.65;;;10.73;;
49029;SDS011;43337;52.070;4.508;2023-06-22T06:45:07;18.42;;;11.18;;
49029;SDS011;43337;52.070;4.508;2023-06-22T06:47:34;20.65;;;11.15;;
49029;SDS011;43337;52.070;4.508;2023-06-22T06:50:00;18.08;;;10.88;;
49029;SDS011;43337;52.070;4.508;2023-06-22T06:52:25;16.73;;;9.85;;
49029;SDS011;43337;52.070;4.508;2023-06-22T06:54:51;15.90;;;9.35;;
49029;SDS011;43337;52.070;4.508;2023-06-22T06:57:18;17.48;;;9.13;;
49029;SDS011;43337;52.070;4.508;2023-06-22T06:59:45;14.55;;;8.70;;
49029;SDS011;43337;52.070;4.508;2023-06-22T07:02:11;16.35;;;8.93;;
49029;SDS011;43337;52.070;4.508;2023-06-22T07:04:37;19.83;;;10.27;;
49029;SDS011;43337;52.070;4.508;2023-06-22T07:07:02;14.27;;;8.45;;
49029;SDS011;43337;52.070;4.508;2023-06-22T07:09:28;15.05;;;7.70;;
49029;SDS011;43337;52.070;4.508;2023-06-22T07:11:53;14.45;;;7.50;;
49029;SDS011;43337;52.070;4.508;2023-06-22T07:14:18;14.13;;;7.90;;
49029;SDS011;43337;52.070;4.508;2023-06-22T07:16:44;13.63;;;7.43;;
49029;SDS011;43337;52.070;4.508;2023-06-22T07:19:11;11.10;;;6.82;;
49029;SDS011;43337;52.070;4.508;2023-06-22T07:21:37;13.63;;;7.88;;
49029;SDS011;43337;52.070;4.508;2023-06-22T07:24:04;12.30;;;6.82;;
49029;SDS011;43337;52.070;4.508;2023-06-22T07:26:30;11.40;;;6.10;;
49029;SDS011;43337;52.070;4.508;2023-06-22T07:28:56;8.68;;;5.85;;
49029;SDS011;43337;52.070;4.508;2023-06-22T07:33:49;10.85;;;5.35;;
49029;SDS011;43337;52.070;4.508;2023-06-22T07:36:14;10.75;;;5.95;;
49029;SDS011;43337;52.070;4.508;2023-06-22T07:38:40;8.80;;;5.40;;
49029;SDS011;43337;52.070;4.508;2023-06-22T07:41:05;9.23;;;5.60;;
49029;SDS011;43337;52.070;4.508;2023-06-22T07:43:31;11.40;;;5.90;;
49029;SDS011;43337;52.070;4.508;2023-06-22T07:45:58;9.90;;;5.63;;
49029;SDS011;43337;52.070;4.508;2023-06-22T07:48:23;9.38;;;6.53;;
49029;SDS011;43337;52.070;4.508;2023-06-22T07:50:49;9.00;;;5.60;;
49029;SDS011;43337;52.070;4.508;2023-06-22T07:53:14;10.07;;;5.43;;
49029;SDS011;43337;52.070;4.508;2023-06-22T07:55:40;10.38;;;5.50;;
49029;SDS011;43337;52.070;4.508;2023-06-22T07:58:05;11.65;;;6.38;;
49029;SDS011;43337;52.070;4.508;2023-06-22T08:00:30;12.38;;;6.90;;
49029;SDS011;43337;52.070;4.508;2023-06-22T08:02:56;12.40;;;6.43;;
49029;SDS011;43337;52.070;4.508;2023-06-22T08:05:21;9.02;;;5.28;;
49029;SDS011;43337;52.070;4.508;2023-06-22T08:07:49;15.90;;;7.75;;
49029;SDS011;43337;52.070;4.508;2023-06-22T08:10:14;9.43;;;6.43;;
49029;SDS011;43337;52.070;4.508;2023-06-22T08:12:40;10.57;;;5.25;;
49029;SDS011;43337;52.070;4.508;2023-06-22T08:15:06;11.65;;;6.00;;
49029;SDS011;43337;52.070;4.508;2023-06-22T08:17:32;10.50;;;6.38;;
49029;SDS011;43337;52.070;4.508;2023-06-22T08:19:58;10.60;;;5.00;;
49029;SDS011;43337;52.070;4.508;2023-06-22T08:22:23;9.77;;;5.53;;
49029;SDS011;43337;52.070;4.508;2023-06-22T08:24:48;9.48;;;4.47;;
49029;SDS011;43337;52.070;4.508;2023-06-22T08:27:14;8.05;;;4.32;;
49029;SDS011;43337;52.070;4.508;2023-06-22T08:29:45;10.00;;;4.30;;
49029;SDS011;43337;52.070;4.508;2023-06-22T08:32:14;6.75;;;4.20;;
49029;SDS011;43337;52.070;4.508;2023-06-22T08:34:39;6.50;;;2.83;;
49029;SDS011;43337;52.070;4.508;2023-06-22T08:37:08;6.43;;;2.80;;
49029;SDS011;43337;52.070;4.508;2023-06-22T08:39:34;4.00;;;2.00;;
49029;SDS011;43337;52.070;4.508;2023-06-22T08:41:59;4.43;;;1.75;;
49029;SDS011;43337;52.070;4.508;2023-06-22T08:44:25;11.35;;;3.15;;
49029;SDS011;43337;52.070;4.508;2023-06-22T08:46:50;7.43;;;3.58;;
49029;SDS011;43337;52.070;4.508;2023-06-22T08:49:15;8.38;;;4.28;;
49029;SDS011;43337;52.070;4.508;2023-06-22T08:51:41;10.93;;;5.20;;
49029;SDS011;43337;52.070;4.508;2023-06-22T08:54:06;9.15;;;4.60;;
49029;SDS011;43337;52.070;4.508;2023-06-22T08:56:31;7.95;;;5.57;;
49029;SDS011;43337;52.070;4.508;2023-06-22T08:58:57;10.10;;;6.78;;
49029;SDS011;43337;52.070;4.508;2023-06-22T09:01:22;10.07;;;6.00;;
49029;SDS011;43337;52.070;4.508;2023-06-22T09:03:48;12.43;;;7.10;;
49029;SDS011;43337;52.070;4.508;2023-06-22T09:06:19;13.77;;;6.90;;
49029;SDS011;43337;52.070;4.508;2023-06-22T09:08:46;12.73;;;6.35;;
49029;SDS011;43337;52.070;4.508;2023-06-22T09:11:12;11.75;;;6.50;;
49029;SDS011;43337;52.070;4.508;2023-06-22T09:13:37;11.50;;;6.03;;
49029;SDS011;43337;52.070;4.508;2023-06-22T09:16:02;11.70;;;6.40;;
49029;SDS011;43337;52.070;4.508;2023-06-22T09:18:28;11.40;;;6.70;;
49029;SDS011;43337;52.070;4.508;2023-06-22T09:20:53;9.20;;;6.28;;
49029;SDS011;43337;52.070;4.508;2023-06-22T09:23:18;13.68;;;6.75;;
49029;SDS011;43337;52.070;4.508;2023-06-22T09:25:44;13.15;;;6.88;;
49029;SDS011;43337;52.070;4.508;2023-06-22T09:28:09;11.60;;;6.28;;
49029;SDS011;43337;52.070;4.508;2023-06-22T09:30:35;10.07;;;4.05;;
49029;SDS011;43337;52.070;4.508;2023-06-22T09:33:00;9.02;;;5.05;;
49029;SDS011;43337;52.070;4.508;2023-06-22T09:35:27;9.38;;;5.68;;
49029;SDS011;43337;52.070;4.508;2023-06-22T09:37:52;8.48;;;4.65;;
49029;SDS011;43337;52.070;4.508;2023-06-22T09:40:17;9.52;;;4.50;;
49029;SDS011;43337;52.070;4.508;2023-06-22T09:42:43;9.55;;;4.93;;
49029;SDS011;43337;52.070;4.508;2023-06-22T09:45:08;8.88;;;4.80;;
49029;SDS011;43337;52.070;4.508;2023-06-22T09:47:34;8.85;;;4.75;;
49029;SDS011;43337;52.070;4.508;2023-06-22T09:49:59;6.78;;;3.92;;
49029;SDS011;43337;52.070;4.508;2023-06-22T09:52:25;7.85;;;4.60;;
49029;SDS011;43337;52.070;4.508;2023-06-22T09:54:50;9.07;;;4.32;;
49029;SDS011;43337;52.070;4.508;2023-06-22T09:57:16;6.70;;;3.08;;
49029;SDS011;43337;52.070;4.508;2023-06-22T09:59:41;6.32;;;2.53;;
49029;SDS011;43337;52.070;4.508;2023-06-22T10:02:06;4.60;;;2.75;;
49029;SDS011;43337;52.070;4.508;2023-06-22T10:04:33;6.38;;;2.97;;
49029;SDS011;43337;52.070;4.508;2023-06-22T10:06:59;6.35;;;4.18;;
49029;SDS011;43337;52.070;4.508;2023-06-22T10:09:24;6.65;;;3.65;;
49029;SDS011;43337;52.070;4.508;2023-06-22T10:11:50;7.20;;;3.20;;
49029;SDS011;43337;52.070;4.508;2023-06-22T10:14:15;9.65;;;4.28;;
49029;SDS011;43337;52.070;4.508;2023-06-22T10:16:41;9.07;;;4.25;;
49029;SDS011;43337;52.070;4.508;2023-06-22T10:19:06;9.27;;;5.63;;
49029;SDS011;43337;52.070;4.508;2023-06-22T10:21:32;6.78;;;3.72;;
49029;SDS011;43337;52.070;4.508;2023-06-22T10:23:57;7.18;;;3.85;;
49029;SDS011;43337;52.070;4.508;2023-06-22T10:26:24;5.47;;;3.55;;
49029;SDS011;43337;52.070;4.508;2023-06-22T10:28:49;10.40;;;4.90;;
49029;SDS011;43337;52.070;4.508;2023-06-22T10:31:15;7.63;;;5.07;;
49029;SDS011;43337;52.070;4.508;2023-06-22T10:33:41;8.70;;;5.72;;
49029;SDS011;43337;52.070;4.508;2023-06-22T10:36:08;12.23;;;6.20;;
49029;SDS011;43337;52.070;4.508;2023-06-22T10:38:34;11.52;;;7.18;;
49029;SDS011;43337;52.070;4.508;2023-06-22T10:41:00;11.70;;;6.75;;
49029;SDS011;43337;52.070;4.508;2023-06-22T10:43:25;10.43;;;5.78;;
49029;SDS011;43337;52.070;4.508;2023-06-22T10:45:50;10.00;;;6.68;;
49029;SDS011;43337;52.070;4.508;2023-06-22T10:48:16;10.65;;;6.97;;
49029;SDS011;43337;52.070;4.508;2023-06-22T10:50:41;9.93;;;6.40;;
49029;SDS011;43337;52.070;4.508;2023-06-22T10:53:06;12.43;;;7.07;;
49029;SDS011;43337;52.070;4.508;2023-06-22T10:55:32;13.13;;;7.50;;
49029;SDS011;43337;52.070;4.508;2023-06-22T10:57:57;8.77;;;6.05;;
49029;SDS011;43337;52.070;4.508;2023-06-22T11:00:22;10.10;;;7.00;;
49029;SDS011;43337;52.070;4.508;2023-06-22T11:02:48;10.07;;;7.03;;
49029;SDS011;43337;52.070;4.508;2023-06-22T11:05:13;12.65;;;8.38;;
49029;SDS011;43337;52.070;4.508;2023-06-22T11:07:42;14.65;;;9.23;;
49029;SDS011;43337;52.070;4.508;2023-06-22T11:10:09;15.02;;;9.00;;
49029;SDS011;43337;52.070;4.508;2023-06-22T11:12:35;13.45;;;9.30;;
49029;SDS011;43337;52.070;4.508;2023-06-22T11:15:01;13.27;;;8.32;;
49029;SDS011;43337;52.070;4.508;2023-06-22T11:17:26;14.30;;;9.63;;
49029;SDS011;43337;52.070;4.508;2023-06-22T11:19:52;13.50;;;8.82;;
49029;SDS011;43337;52.070;4.508;2023-06-22T11:22:17;15.27;;;9.30;;
49029;SDS011;43337;52.070;4.508;2023-06-22T11:24:43;15.23;;;9.05;;
49029;SDS011;43337;52.070;4.508;2023-06-22T11:27:08;12.65;;;8.57;;
49029;SDS011;43337;52.070;4.508;2023-06-22T11:29:33;14.60;;;8.77;;
49029;SDS011;43337;52.070;4.508;2023-06-22T11:31:59;15.55;;;8.88;;
49029;SDS011;43337;52.070;4.508;2023-06-22T11:34:24;13.63;;;7.88;;
49029;SDS011;43337;52.070;4.508;2023-06-22T11:36:49;12.93;;;8.15;;
49029;SDS011;43337;52.070;4.508;2023-06-22T11:39:15;14.23;;;8.23;;
49029;SDS011;43337;52.070;4.508;2023-06-22T11:41:40;13.75;;;8.25;;
49029;SDS011;43337;52.070;4.508;2023-06-22T11:44:06;14.10;;;9.00;;
49029;SDS011;43337;52.070;4.508;2023-06-22T11:46:32;16.20;;;10.25;;
49029;SDS011;43337;52.070;4.508;2023-06-22T11:48:58;18.63;;;10.18;;
49029;SDS011;43337;52.070;4.508;2023-06-22T11:51:23;17.92;;;10.35;;
49029;SDS011;43337;52.070;4.508;2023-06-22T11:53:48;16.65;;;10.00;;
49029;SDS011;43337;52.070;4.508;2023-06-22T11:56:14;17.45;;;9.40;;
49029;SDS011;43337;52.070;4.508;2023-06-22T11:58:39;16.15;;;9.85;;
49029;SDS011;43337;52.070;4.508;2023-06-22T12:01:04;16.20;;;9.95;;
49029;SDS011;43337;52.070;4.508;2023-06-22T12:03:30;16.90;;;9.23;;
49029;SDS011;43337;52.070;4.508;2023-06-22T12:05:55;13.00;;;8.57;;
49029;SDS011;43337;52.070;4.508;2023-06-22T12:08:21;13.45;;;8.80;;
49029;SDS011;43337;52.070;4.508;2023-06-22T12:10:47;13.63;;;9.55;;
49029;SDS011;43337;52.070;4.508;2023-06-22T12:13:12;13.85;;;9.02;;
49029;SDS011;43337;52.070;4.508;2023-06-22T12:15:38;14.45;;;8.88;;
49029;SDS011;43337;52.070;4.508;2023-06-22T12:18:03;13.75;;;8.93;;
49029;SDS011;43337;52.070;4.508;2023-06-22T12:20:28;18.40;;;9.10;;
49029;SDS011;43337;52.070;4.508;2023-06-22T12:22:54;14.77;;;7.90;;
49029;SDS011;43337;52.070;4.508;2023-06-22T12:25:21;14.13;;;8.07;;
49029;SDS011;43337;52.070;4.508;2023-06-22T12:27:47;19.52;;;10.40;;
49029;SDS011;43337;52.070;4.508;2023-06-22T12:30:12;18.15;;;11.65;;
49029;SDS011;43337;52.070;4.508;2023-06-22T12:32:38;19.73;;;11.82;;
49029;SDS011;43337;52.070;4.508;2023-06-22T12:35:03;21.52;;;12.35;;
49029;SDS011;43337;52.070;4.508;2023-06-22T12:37:29;18.60;;;12.25;;
49029;SDS011;43337;52.070;4.508;2023-06-22T12:39:56;17.48;;;11.05;;
49029;SDS011;43337;52.070;4.508;2023-06-22T12:42:22;18.23;;;11.00;;
49029;SDS011;43337;52.070;4.508;2023-06-22T12:44:47;22.55;;;13.18;;
49029;SDS011;43337;52.070;4.508;2023-06-22T12:47:12;17.50;;;11.48;;
49029;SDS011;43337;52.070;4.508;2023-06-22T12:49:38;17.30;;;12.30;;
49029;SDS011;43337;52.070;4.508;2023-06-22T12:52:08;19.15;;;12.00;;
49029;SDS011;43337;52.070;4.508;2023-06-22T12:54:34;17.40;;;11.40;;
49029;SDS011;43337;52.070;4.508;2023-06-22T12:57:00;21.65;;;12.35;;
49029;SDS011;43337;52.070;4.508;2023-06-22T12:59:26;19.27;;;13.75;;
49029;SDS011;43337;52.070;4.508;2023-06-22T13:01:51;20.85;;;12.30;;
49029;SDS011;43337;52.070;4.508;2023-06-22T13:04:17;18.58;;;12.00;;
49029;SDS011;43337;52.070;4.508;2023-06-22T13:06:43;17.75;;;11.00;;
49029;SDS011;43337;52.070;4.508;2023-06-22T13:09:12;19.23;;;11.52;;
49029;SDS011;43337;52.070;4.508;2023-06-22T13:11:37;19.40;;;11.13;;
49029;SDS011;43337;52.070;4.508;2023-06-22T13:14:02;16.92;;;11.40;;
49029;SDS011;43337;52.070;4.508;2023-06-22T13:16:28;16.85;;;11.00;;
49029;SDS011;43337;52.070;4.508;2023-06-22T13:18:53;16.17;;;10.77;;
49029;SDS011;43337;52.070;4.508;2023-06-22T13:21:18;18.65;;;11.02;;
49029;SDS011;43337;52.070;4.508;2023-06-22T13:23:44;15.05;;;9.98;;
49029;SDS011;43337;52.070;4.508;2023-06-22T13:26:09;19.58;;;11.23;;
49029;SDS011;43337;52.070;4.508;2023-06-22T13:28:35;14.88;;;10.68;;
49029;SDS011;43337;52.070;4.508;2023-06-22T13:31:00;15.05;;;9.77;;
49029;SDS011;43337;52.070;4.508;2023-06-22T13:33:25;15.23;;;9.98;;
49029;SDS011;43337;52.070;4.508;2023-06-22T13:35:50;17.15;;;9.95;;
49029;SDS011;43337;52.070;4.508;2023-06-22T13:38:16;14.07;;;9.52;;
49029;SDS011;43337;52.070;4.508;2023-06-22T13:40:42;16.75;;;8.90;;
49029;SDS011;43337;52.070;4.508;2023-06-22T13:43:08;15.45;;;10.10;;
49029;SDS011;43337;52.070;4.508;2023-06-22T13:45:34;16.23;;;9.52;;
49029;SDS011;43337;52.070;4.508;2023-06-22T13:47:59;13.93;;;9.45;;
49029;SDS011;43337;52.070;4.508;2023-06-22T13:50:24;16.75;;;10.60;;
49029;SDS011;43337;52.070;4.508;2023-06-22T13:52:50;15.75;;;10.20;;
49029;SDS011;43337;52.070;4.508;2023-06-22T13:55:15;14.18;;;9.90;;
49029;SDS011;43337;52.070;4.508;2023-06-22T13:57:40;16.40;;;10.13;;
49029;SDS011;43337;52.070;4.508;2023-06-22T14:00:06;15.35;;;10.25;;
49029;SDS011;43337;52.070;4.508;2023-06-22T14:02:33;17.05;;;9.48;;
49029;SDS011;43337;52.070;4.508;2023-06-22T14:04:58;15.00;;;9.48;;
49029;SDS011;43337;52.070;4.508;2023-06-22T14:07:24;15.05;;;9.13;;
49029;SDS011;43337;52.070;4.508;2023-06-22T14:09:49;16.88;;;10.07;;
49029;SDS011;43337;52.070;4.508;2023-06-22T14:12:15;15.80;;;9.02;;
49029;SDS011;43337;52.070;4.508;2023-06-22T14:14:42;14.95;;;10.05;;
49029;SDS011;43337;52.070;4.508;2023-06-22T14:17:08;14.00;;;9.40;;
49029;SDS011;43337;52.070;4.508;2023-06-22T14:19:33;16.08;;;9.38;;
49029;SDS011;43337;52.070;4.508;2023-06-22T14:21:59;14.98;;;9.73;;
49029;SDS011;43337;52.070;4.508;2023-06-22T14:24:24;14.55;;;9.23;;
49029;SDS011;43337;52.070;4.508;2023-06-22T14:26:50;13.45;;;8.35;;
49029;SDS011;43337;52.070;4.508;2023-06-22T14:29:15;13.18;;;8.30;;
49029;SDS011;43337;52.070;4.508;2023-06-22T14:31:40;13.02;;;7.90;;
49029;SDS011;43337;52.070;4.508;2023-06-22T14:34:09;13.50;;;7.88;;
49029;SDS011;43337;52.070;4.508;2023-06-22T14:36:34;13.32;;;7.82;;